Time;durP1;ratioP1;P1;durP2;ratioP2;P2;SDS_P1;SDS_P2;PMS_P1;PMS_P2;Temp;Humidity;BMP_temperature;BMP_pressure;BME280_temperature;BME280_humidity;BME280_pressure;Samples;Min_cycle;Max_cycle;Signal;HPM_P1;HPM_P2
2021/10/03 00:01:53;;;;;;;3.03;1.77;;;;;;;;;;5053799;28;20526;-78
2021/10/03 00:04:19;;;;;;;1.87;1.67;;;;;;;;;;5036536;28;20843;-78
2021/10/03 00:06:46;;;;;;;2.47;2.03;;;;;;;;;;5054337;28;20853;-78
2021/10/03 00:09:12;;;;;;;2.07;1.87;;;;;;;;;;5054271;28;20420;-77
2021/10/03 00:11:39;;;;;;;2.37;1.80;;;;;;;;;;5053652;28;20422;-77
2021/10/03 00:14:05;;;;;;;2.00;1.40;;;;;;;;;;5053963;28;20411;-78
2021/10/03 00:16:31;;;;;;;3.20;2.30;;;;;;;;;;5053916;28;20967;-78
2021/10/03 00:18:57;;;;;;;4.43;1.73;;;;;;;;;;5054146;28;20412;-77
2021/10/03 00:21:23;;;;;;;1.70;1.40;;;;;;;;;;5053615;28;20908;-77
2021/10/03 00:23:50;;;;;;;2.07;1.70;;;;;;;;;;5036170;28;20466;-78
2021/10/03 00:26:16;;;;;;;2.23;1.30;;;;;;;;;;5053590;28;20473;-77
2021/10/03 00:28:42;;;;;;;2.40;1.77;;;;;;;;;;5035900;28;21054;-78
2021/10/03 00:31:08;;;;;;;3.50;2.00;;;;;;;;;;5035754;28;20408;-77
2021/10/03 00:33:35;;;;;;;1.97;1.60;;;;;;;;;;5053625;28;20515;-77
2021/10/03 00:36:01;;;;;;;2.23;1.80;;;;;;;;;;5053649;28;20423;-78
2021/10/03 00:38:27;;;;;;;2.23;1.23;;;;;;;;;;5053440;28;20912;-78
2021/10/03 00:40:53;;;;;;;3.40;1.80;;;;;;;;;;5053629;28;20390;-77
2021/10/03 00:43:19;;;;;;;3.10;1.67;;;;;;;;;;5053245;28;20432;-77
2021/10/03 00:45:45;;;;;;;2.00;1.80;;;;;;;;;;5036087;28;20455;-78
2021/10/03 00:48:12;;;;;;;2.47;2.00;;;;;;;;;;5035737;28;20437;-77
2021/10/03 00:50:39;;;;;;;3.20;1.80;;;;;;;;;;5053558;28;20387;-77
2021/10/03 00:53:05;;;;;;;2.33;1.80;;;;;;;;;;5052862;28;20991;-77
2021/10/03 00:55:32;;;;;;;1.87;1.70;;;;;;;;;;5035569;28;20399;-77
2021/10/03 00:57:58;;;;;;;3.63;2.00;;;;;;;;;;5053617;28;20393;-77
2021/10/03 01:00:25;;;;;;;1.70;1.60;;;;;;;;;;5053516;28;20412;-77
2021/10/03 01:02:53;;;;;;;2.63;2.10;;;;;;;;;;5052850;28;20562;-77
2021/10/03 01:05:20;;;;;;;2.90;2.30;;;;;;;;;;5053585;28;20419;-77
2021/10/03 01:07:46;;;;;;;3.43;2.10;;;;;;;;;;5053114;28;20451;-78
2021/10/03 01:10:13;;;;;;;2.00;1.80;;;;;;;;;;5035772;28;20823;-77
2021/10/03 01:12:40;;;;;;;4.33;2.07;;;;;;;;;;5035005;28;20744;-78
2021/10/03 01:15:07;;;;;;;3.07;1.67;;;;;;;;;;5035461;28;20511;-78
2021/10/03 01:17:33;;;;;;;4.10;1.60;;;;;;;;;;5053131;28;20391;-77
2021/10/03 01:19:59;;;;;;;2.20;1.60;;;;;;;;;;5035430;28;20554;-77
2021/10/03 01:22:26;;;;;;;2.00;1.67;;;;;;;;;;5052720;28;20424;-77
2021/10/03 01:24:53;;;;;;;2.17;1.63;;;;;;;;;;5052952;28;20828;-77
2021/10/03 01:27:20;;;;;;;2.10;1.83;;;;;;;;;;5035107;28;20508;-77
2021/10/03 01:29:46;;;;;;;2.33;1.60;;;;;;;;;;5052942;28;20420;-77
2021/10/03 01:32:12;;;;;;;3.53;1.63;;;;;;;;;;5052587;28;20403;-78
2021/10/03 01:34:38;;;;;;;3.83;1.80;;;;;;;;;;5052858;28;20947;-78
2021/10/03 01:37:04;;;;;;;1.90;1.40;;;;;;;;;;5052733;28;20435;-77
2021/10/03 01:39:30;;;;;;;3.67;1.73;;;;;;;;;;5052879;28;20408;-77
2021/10/03 01:41:56;;;;;;;1.80;1.40;;;;;;;;;;5052599;28;20470;-77
2021/10/03 01:44:22;;;;;;;1.50;1.30;;;;;;;;;;5053108;28;20444;-77
2021/10/03 01:46:48;;;;;;;1.60;1.50;;;;;;;;;;5052654;28;21007;-78
2021/10/03 01:49:14;;;;;;;3.00;1.83;;;;;;;;;;5034882;28;20424;-78
2021/10/03 01:51:40;;;;;;;3.43;1.80;;;;;;;;;;5052265;28;20519;-77
2021/10/03 01:54:06;;;;;;;2.07;1.73;;;;;;;;;;5052939;28;20407;-77
2021/10/03 01:56:32;;;;;;;1.50;1.30;;;;;;;;;;5035159;28;20412;-78
2021/10/03 01:59:00;;;;;;;2.40;2.07;;;;;;;;;;5053207;28;20904;-79
2021/10/03 02:01:31;;;;;;;4.83;2.37;;;;;;;;;;5053077;28;20412;-77
2021/10/03 02:03:57;;;;;;;1.90;1.70;;;;;;;;;;5052933;28;20447;-78
2021/10/03 02:06:24;;;;;;;1.83;1.63;;;;;;;;;;5052681;28;20417;-78
2021/10/03 02:08:51;;;;;;;2.87;2.20;;;;;;;;;;5052633;28;20411;-77
2021/10/03 02:11:17;;;;;;;2.30;1.80;;;;;;;;;;5052222;28;20908;-77
2021/10/03 02:13:43;;;;;;;2.43;1.60;;;;;;;;;;5052641;28;20499;-77
2021/10/03 02:16:09;;;;;;;2.80;2.03;;;;;;;;;;5052676;28;20955;-78
2021/10/03 02:18:37;;;;;;;2.40;1.70;;;;;;;;;;5052558;28;20411;-78
2021/10/03 02:21:04;;;;;;;2.50;2.03;;;;;;;;;;5053186;28;20403;-78
2021/10/03 02:23:30;;;;;;;3.80;2.03;;;;;;;;;;5038135;28;20436;-77
2021/10/03 02:25:56;;;;;;;4.00;2.20;;;;;;;;;;5056441;28;20406;-77
2021/10/03 02:28:24;;;;;;;2.67;1.90;;;;;;;;;;5056174;28;20455;-77
2021/10/03 02:30:51;;;;;;;2.43;2.23;;;;;;;;;;5056014;28;20447;-78
2021/10/03 02:33:17;;;;;;;2.70;2.37;;;;;;;;;;5055430;28;21011;-77
2021/10/03 02:35:44;;;;;;;2.73;1.80;;;;;;;;;;5055957;28;20816;-78
2021/10/03 02:38:11;;;;;;;2.37;2.17;;;;;;;;;;5055955;28;20848;-77
2021/10/03 02:40:37;;;;;;;2.20;2.00;;;;;;;;;;5055869;28;20404;-77
2021/10/03 02:43:05;;;;;;;3.43;2.47;;;;;;;;;;5055373;28;20956;-78
2021/10/03 02:45:33;;;;;;;3.70;2.50;;;;;;;;;;5055670;28;20457;-77
2021/10/03 02:47:59;;;;;;;3.60;2.77;;;;;;;;;;5055730;28;20504;-77
2021/10/03 02:50:25;;;;;;;3.00;2.30;;;;;;;;;;5055710;28;20911;-77
2021/10/03 02:52:51;;;;;;;2.87;2.67;;;;;;;;;;5055225;28;20458;-77
2021/10/03 02:55:17;;;;;;;3.07;2.50;;;;;;;;;;5055541;28;20476;-78
2021/10/03 02:57:43;;;;;;;2.70;2.33;;;;;;;;;;5055655;28;21062;-78
2021/10/03 03:00:09;;;;;;;4.83;2.60;;;;;;;;;;5055639;28;20416;-77
2021/10/03 03:02:37;;;;;;;4.67;2.90;;;;;;;;;;5055012;28;20950;-78
2021/10/03 03:05:03;;;;;;;3.90;2.60;;;;;;;;;;5055505;28;20412;-78
2021/10/03 03:07:29;;;;;;;3.50;2.97;;;;;;;;;;5055230;28;20959;-78
2021/10/03 03:09:55;;;;;;;5.17;2.70;;;;;;;;;;5055323;28;20504;-77
2021/10/03 03:12:21;;;;;;;2.80;2.50;;;;;;;;;;5054919;28;20431;-78
2021/10/03 03:14:47;;;;;;;2.80;2.60;;;;;;;;;;5055450;28;20919;-78
2021/10/03 03:17:15;;;;;;;2.97;2.67;;;;;;;;;;5055229;28;20412;-78
2021/10/03 03:19:41;;;;;;;3.57;2.93;;;;;;;;;;5055063;28;20762;-77
2021/10/03 03:22:07;;;;;;;3.97;3.30;;;;;;;;;;5054723;28;20438;-78
2021/10/03 03:24:33;;;;;;;4.80;3.03;;;;;;;;;;5055010;28;20893;-76
2021/10/03 03:26:59;;;;;;;4.10;2.87;;;;;;;;;;5054921;28;20452;-78
2021/10/03 03:29:25;;;;;;;3.37;3.07;;;;;;;;;;5055010;28;20424;-78
2021/10/03 03:31:51;;;;;;;4.57;2.80;;;;;;;;;;5036134;28;20471;-78
2021/10/03 03:34:17;;;;;;;3.57;2.53;;;;;;;;;;5054255;28;20405;-78
2021/10/03 03:36:43;;;;;;;5.17;3.40;;;;;;;;;;5054744;28;20481;-77
2021/10/03 03:39:09;;;;;;;3.73;3.23;;;;;;;;;;5054697;28;20416;-77
2021/10/03 03:41:35;;;;;;;4.87;3.10;;;;;;;;;;5054301;28;20493;-78
2021/10/03 03:44:01;;;;;;;3.60;3.10;;;;;;;;;;5054470;28;20904;-78
2021/10/03 03:46:27;;;;;;;4.43;3.30;;;;;;;;;;5054420;28;20416;-77
2021/10/03 03:48:52;;;;;;;5.07;3.53;;;;;;;;;;5054750;28;20420;-77
2021/10/03 03:51:19;;;;;;;5.20;3.53;;;;;;;;;;5054244;28;20427;-77
2021/10/03 03:53:45;;;;;;;4.50;3.90;;;;;;;;;;5054378;28;20813;-78
2021/10/03 03:56:11;;;;;;;4.83;3.33;;;;;;;;;;5054436;28;20437;-78
2021/10/03 03:58:37;;;;;;;7.20;3.77;;;;;;;;;;5036709;28;20424;-77
2021/10/03 04:01:03;;;;;;;4.33;3.40;;;;;;;;;;5036087;28;20428;-77
2021/10/03 04:03:29;;;;;;;3.67;2.97;;;;;;;;;;5054466;28;20900;-77
2021/10/03 04:05:55;;;;;;;4.53;3.90;;;;;;;;;;5054391;28;20412;-77
2021/10/03 04:08:23;;;;;;;4.73;3.30;;;;;;;;;;5054337;28;20472;-77
2021/10/03 04:10:49;;;;;;;5.50;3.40;;;;;;;;;;5054334;28;20507;-78
2021/10/03 04:13:15;;;;;;;3.63;3.20;;;;;;;;;;5053734;28;20428;-78
2021/10/03 04:15:41;;;;;;;8.13;3.37;;;;;;;;;;5054172;28;20926;-77
2021/10/03 04:18:07;;;;;;;5.40;4.50;;;;;;;;;;5053916;28;20404;-78
2021/10/03 04:20:33;;;;;;;3.57;3.27;;;;;;;;;;5054071;28;20416;-77
2021/10/03 04:22:59;;;;;;;6.27;3.60;;;;;;;;;;5053629;28;20432;-77
2021/10/03 04:25:25;;;;;;;5.30;4.10;;;;;;;;;;5053819;28;20903;-77
2021/10/03 04:27:51;;;;;;;5.00;4.07;;;;;;;;;;5053726;28;20463;-77
2021/10/03 04:30:17;;;;;;;11.50;4.90;;;;;;;;;;5053755;28;20829;-78
2021/10/03 04:32:43;;;;;;;5.00;3.60;;;;;;;;;;5053328;28;20799;-79
2021/10/03 04:35:09;;;;;;;7.70;4.33;;;;;;;;;;5053701;28;20444;-77
2021/10/03 04:37:35;;;;;;;4.90;4.00;;;;;;;;;;5053613;28;20474;-78
2021/10/03 04:40:01;;;;;;;7.00;4.33;;;;;;;;;;5053577;28;20459;-78
2021/10/03 04:42:27;;;;;;;6.37;4.47;;;;;;;;;;5053067;28;20924;-77
2021/10/03 04:44:54;;;;;;;4.70;3.20;;;;;;;;;;5053253;28;20420;-77
2021/10/03 04:47:20;;;;;;;7.30;4.60;;;;;;;;;;5036076;28;20463;-77
2021/10/03 04:49:49;;;;;;;8.00;4.20;;;;;;;;;;5053369;28;20542;-77
2021/10/03 04:52:15;;;;;;;5.40;4.17;;;;;;;;;;5052894;28;20447;-78
2021/10/03 04:54:41;;;;;;;4.93;4.07;;;;;;;;;;5053571;28;20427;-77
2021/10/03 04:57:07;;;;;;;6.43;4.47;;;;;;;;;;5035815;28;20386;-77
2021/10/03 04:59:33;;;;;;;5.07;4.03;;;;;;;;;;5053353;28;20419;-77
2021/10/03 05:01:59;;;;;;;6.50;4.10;;;;;;;;;;5052836;28;20524;-78
2021/10/03 05:04:25;;;;;;;8.00;4.30;;;;;;;;;;5053334;28;20428;-77
2021/10/03 05:06:51;;;;;;;4.23;3.70;;;;;;;;;;5053281;28;20459;-77
2021/10/03 05:09:17;;;;;;;4.50;4.10;;;;;;;;;;5053236;28;20414;-78
2021/10/03 05:11:43;;;;;;;5.23;4.33;;;;;;;;;;5034907;28;20440;-77
2021/10/03 05:14:09;;;;;;;4.33;3.40;;;;;;;;;;5053143;28;20412;-78
2021/10/03 05:16:35;;;;;;;5.30;3.73;;;;;;;;;;5052931;28;20412;-77
2021/10/03 05:19:01;;;;;;;4.90;4.00;;;;;;;;;;5053467;28;20416;-78
2021/10/03 05:21:28;;;;;;;5.03;4.07;;;;;;;;;;5052948;28;20423;-77
2021/10/03 05:23:54;;;;;;;5.33;3.30;;;;;;;;;;5053052;28;20412;-78
2021/10/03 05:26:20;;;;;;;6.87;4.00;;;;;;;;;;5052933;28;20420;-78
2021/10/03 05:28:46;;;;;;;5.17;3.80;;;;;;;;;;5052988;28;20394;-78
2021/10/03 05:31:11;;;;;;;4.20;3.80;;;;;;;;;;5052722;28;20887;-78
2021/10/03 05:33:39;;;;;;;5.40;3.63;;;;;;;;;;5035029;28;20476;-77
2021/10/03 05:36:05;;;;;;;5.43;3.67;;;;;;;;;;5052928;28;20941;-77
2021/10/03 05:38:31;;;;;;;5.80;4.10;;;;;;;;;;5052774;28;20430;-77
2021/10/03 05:40:57;;;;;;;5.93;3.93;;;;;;;;;;5034830;28;20416;-78
2021/10/03 05:43:23;;;;;;;4.50;3.90;;;;;;;;;;5052562;28;20822;-77
2021/10/03 05:45:49;;;;;;;5.70;4.37;;;;;;;;;;5052810;28;20415;-78
2021/10/03 05:48:15;;;;;;;8.20;4.30;;;;;;;;;;5052674;28;20905;-78
2021/10/03 05:50:41;;;;;;;6.07;4.40;;;;;;;;;;5052726;28;20431;-77
2021/10/03 05:53:08;;;;;;;5.47;4.20;;;;;;;;;;5034359;28;20444;-77
2021/10/03 05:55:34;;;;;;;8.53;4.10;;;;;;;;;;5035292;28;20896;-78
2021/10/03 05:58:00;;;;;;;4.57;3.83;;;;;;;;;;5038863;28;20446;-78
2021/10/03 06:00:27;;;;;;;4.90;3.80;;;;;;;;;;5038758;28;20391;-77
2021/10/03 06:02:54;;;;;;;7.47;4.57;;;;;;;;;;5055979;28;20439;-78
2021/10/03 06:05:20;;;;;;;4.70;4.30;;;;;;;;;;5056504;28;20408;-78
2021/10/03 06:07:46;;;;;;;5.57;3.60;;;;;;;;;;5056347;28;20466;-78
2021/10/03 06:10:12;;;;;;;6.10;4.80;;;;;;;;;;5056651;28;20465;-78
2021/10/03 06:12:38;;;;;;;4.70;4.03;;;;;;;;;;5056013;28;20436;-77
2021/10/03 06:15:04;;;;;;;5.27;3.77;;;;;;;;;;5056290;28;20496;-78
2021/10/03 06:17:30;;;;;;;5.07;3.83;;;;;;;;;;5056504;28;20404;-77
2021/10/03 06:19:56;;;;;;;5.03;3.93;;;;;;;;;;5056442;28;20412;-78
2021/10/03 06:22:25;;;;;;;7.70;3.30;;;;;;;;;;5055879;28;20462;-79
2021/10/03 06:24:51;;;;;;;7.10;4.00;;;;;;;;;;5056190;28;20424;-78
2021/10/03 06:27:17;;;;;;;7.60;3.67;;;;;;;;;;5055989;28;20856;-77
2021/10/03 06:29:43;;;;;;;6.20;4.00;;;;;;;;;;5055910;28;20771;-78
2021/10/03 06:32:10;;;;;;;4.70;4.20;;;;;;;;;;5055684;28;20790;-78
2021/10/03 06:34:36;;;;;;;5.23;4.03;;;;;;;;;;5056045;28;20792;-77
2021/10/03 06:37:02;;;;;;;4.93;4.53;;;;;;;;;;5055839;28;20474;-78
2021/10/03 06:39:28;;;;;;;6.43;3.60;;;;;;;;;;5038182;28;20822;-78
2021/10/03 06:41:53;;;;;;;6.07;4.57;;;;;;;;;;5055466;28;20489;-77
2021/10/03 06:44:20;;;;;;;4.87;4.10;;;;;;;;;;5055954;28;20422;-78
2021/10/03 06:46:46;;;;;;;6.37;4.23;;;;;;;;;;5037835;28;20466;-78
2021/10/03 06:49:12;;;;;;;10.33;4.30;;;;;;;;;;5055556;28;20462;-77
2021/10/03 06:51:38;;;;;;;5.50;4.07;;;;;;;;;;5055088;28;20511;-77
2021/10/03 06:54:04;;;;;;;4.80;4.30;;;;;;;;;;5037743;28;20395;-78
2021/10/03 06:56:30;;;;;;;4.33;3.90;;;;;;;;;;5055705;28;20454;-78
2021/10/03 06:58:56;;;;;;;4.40;3.40;;;;;;;;;;5055869;28;20387;-78
2021/10/03 07:01:22;;;;;;;6.10;4.10;;;;;;;;;;5037339;28;20401;-77
2021/10/03 07:03:50;;;;;;;5.50;3.93;;;;;;;;;;5055619;28;20408;-77
2021/10/03 07:06:16;;;;;;;4.27;3.53;;;;;;;;;;5055548;28;20393;-78
2021/10/03 07:08:42;;;;;;;6.57;4.30;;;;;;;;;;5055298;28;20431;-77
2021/10/03 07:11:08;;;;;;;4.93;3.80;;;;;;;;;;5054560;28;20412;-76
2021/10/03 07:13:35;;;;;;;4.67;3.87;;;;;;;;;;5054882;28;20798;-77
2021/10/03 07:16:01;;;;;;;5.40;3.50;;;;;;;;;;5055304;28;20836;-78
2021/10/03 07:18:27;;;;;;;7.30;4.93;;;;;;;;;;5055054;28;20417;-78
2021/10/03 07:20:52;;;;;;;7.17;4.13;;;;;;;;;;5055077;28;20393;-78
2021/10/03 07:23:18;;;;;;;6.33;4.70;;;;;;;;;;5054901;28;20428;-77
2021/10/03 07:25:44;;;;;;;7.10;4.00;;;;;;;;;;5054989;28;20912;-78
2021/10/03 07:28:10;;;;;;;4.43;4.00;;;;;;;;;;5054956;28;20467;-78
2021/10/03 07:30:36;;;;;;;3.43;3.13;;;;;;;;;;5055160;28;20435;-77
2021/10/03 07:33:02;;;;;;;6.50;3.83;;;;;;;;;;5054212;28;20932;-78
2021/10/03 07:35:29;;;;;;;9.73;3.30;;;;;;;;;;5054298;28;20481;-77
2021/10/03 07:37:55;;;;;;;4.70;3.70;;;;;;;;;;5054251;28;20626;-79
2021/10/03 07:40:21;;;;;;;6.70;4.07;;;;;;;;;;5036450;28;20537;-78
2021/10/03 07:42:47;;;;;;;6.03;4.30;;;;;;;;;;5054318;28;20447;-78
2021/10/03 07:45:13;;;;;;;5.20;3.83;;;;;;;;;;5054670;28;20908;-78
2021/10/03 07:47:39;;;;;;;4.00;3.60;;;;;;;;;;5054323;28;20451;-79
2021/10/03 07:50:05;;;;;;;5.07;3.50;;;;;;;;;;5054442;28;20390;-77
2021/10/03 07:52:31;;;;;;;6.97;3.90;;;;;;;;;;5053962;28;20934;-77
2021/10/03 07:54:57;;;;;;;5.50;3.93;;;;;;;;;;5054376;28;20433;-78
2021/10/03 07:57:23;;;;;;;7.80;4.00;;;;;;;;;;5054589;28;20397;-78
2021/10/03 07:59:49;;;;;;;5.90;4.13;;;;;;;;;;5036467;28;20386;-78
2021/10/03 08:02:15;;;;;;;4.10;3.60;;;;;;;;;;5054047;28;20436;-78
2021/10/03 08:04:41;;;;;;;5.47;4.50;;;;;;;;;;5020050;28;20450;-77
2021/10/03 08:07:07;;;;;;;4.77;4.20;;;;;;;;;;5054147;28;20430;-78
2021/10/03 08:09:33;;;;;;;7.60;4.10;;;;;;;;;;5053585;28;20467;-78
2021/10/03 08:11:59;;;;;;;6.60;4.07;;;;;;;;;;5053084;28;20481;-77
2021/10/03 08:14:25;;;;;;;6.03;3.70;;;;;;;;;;5050822;28;20549;-77
2021/10/03 08:16:51;;;;;;;4.23;3.83;;;;;;;;;;5053582;28;20866;-78
2021/10/03 08:19:17;;;;;;;4.90;3.90;;;;;;;;;;5053333;28;20785;-77
2021/10/03 08:21:43;;;;;;;7.67;3.60;;;;;;;;;;5053519;28;20442;-78
2021/10/03 08:24:09;;;;;;;4.50;4.10;;;;;;;;;;5053966;28;20383;-77
2021/10/03 08:26:35;;;;;;;4.73;4.30;;;;;;;;;;5036192;28;20419;-77
2021/10/03 08:29:01;;;;;;;4.80;3.30;;;;;;;;;;5053916;28;20416;-77
2021/10/03 08:31:27;;;;;;;4.73;4.23;;;;;;;;;;5053364;28;20408;-78
2021/10/03 08:33:53;;;;;;;4.23;3.57;;;;;;;;;;5053614;28;20410;-77
2021/10/03 08:36:19;;;;;;;6.93;3.73;;;;;;;;;;5053592;28;20408;-78
2021/10/03 08:38:45;;;;;;;5.63;4.40;;;;;;;;;;5053632;28;20907;-77
2021/10/03 08:41:11;;;;;;;5.23;3.97;;;;;;;;;;5053490;28;20416;-78
2021/10/03 08:43:37;;;;;;;4.77;4.17;;;;;;;;;;5053504;28;20432;-78
2021/10/03 08:46:05;;;;;;;6.27;4.20;;;;;;;;;;5053376;28;20499;-79
2021/10/03 08:48:31;;;;;;;6.47;3.80;;;;;;;;;;5053230;28;20502;-76
2021/10/03 08:50:57;;;;;;;6.10;3.83;;;;;;;;;;5052948;28;20915;-78
2021/10/03 08:53:23;;;;;;;4.67;4.23;;;;;;;;;;5053022;28;20447;-78
2021/10/03 08:55:51;;;;;;;4.07;3.63;;;;;;;;;;5035499;28;20552;-77
2021/10/03 08:58:17;;;;;;;8.40;3.70;;;;;;;;;;5053185;28;20416;-77
2021/10/03 09:00:46;;;;;;;6.53;4.63;;;;;;;;;;5035355;28;20428;-78
2021/10/03 09:03:12;;;;;;;3.40;3.10;;;;;;;;;;5052979;28;20424;-78
2021/10/03 09:05:46;;;;;;;6.13;4.03;;;;;;;;;;5053466;28;20874;-78
2021/10/03 09:08:13;;;;;;;6.27;3.93;;;;;;;;;;5053326;28;20968;-77
2021/10/03 09:10:58;;;;;;;3.70;3.37;;;;;;;;;;5035488;28;20803;-77
2021/10/03 09:13:44;;;;;;;3.50;3.20;;;;;;;;;;5052654;28;20402;-77
2021/10/03 09:16:13;;;;;;;3.70;3.40;;;;;;;;;;5045087;28;20418;-78
2021/10/03 09:18:46;;;;;;;4.20;3.80;;;;;;;;;;5053068;28;20400;-77
2021/10/03 09:21:14;;;;;;;5.40;3.77;;;;;;;;;;5052906;28;20447;-77
2021/10/03 09:23:40;;;;;;;6.47;3.73;;;;;;;;;;5052950;28;20633;-77
2021/10/03 09:26:11;;;;;;;4.50;4.10;;;;;;;;;;5052946;28;20439;-78
2021/10/03 09:28:37;;;;;;;8.00;4.27;;;;;;;;;;5052989;28;20623;-77
2021/10/03 09:31:08;;;;;;;5.23;4.00;;;;;;;;;;5054074;28;20408;-78
2021/10/03 09:33:51;;;;;;;4.50;3.20;;;;;;;;;;5057230;28;20432;-78
2021/10/03 09:36:19;;;;;;;4.47;3.67;;;;;;;;;;5056982;28;20392;-78
2021/10/03 09:38:47;;;;;;;5.03;3.60;;;;;;;;;;5056904;28;20416;-79
2021/10/03 09:41:13;;;;;;;6.07;3.77;;;;;;;;;;5056972;28;20415;-77
2021/10/03 09:43:47;;;;;;;3.47;3.17;;;;;;;;;;5056903;28;20474;-77
2021/10/03 09:46:29;;;;;;;5.33;4.17;;;;;;;;;;5039036;28;20763;-77
2021/10/03 09:48:55;;;;;;;4.30;3.90;;;;;;;;;;5056535;28;20428;-77
2021/10/03 09:51:21;;;;;;;6.20;3.93;;;;;;;;;;5053491;28;20387;-77
2021/10/03 09:53:47;;;;;;;5.13;3.63;;;;;;;;;;5056744;28;20419;-78
2021/10/03 09:56:13;;;;;;;7.10;3.50;;;;;;;;;;5027983;28;20852;-78
2021/10/03 09:58:40;;;;;;;5.93;3.50;;;;;;;;;;5036538;28;20408;-78
2021/10/03 10:01:06;;;;;;;6.90;3.67;;;;;;;;;;5036233;28;20512;-77
2021/10/03 10:03:34;;;;;;;4.73;3.80;;;;;;;;;;5036635;28;20403;-78
2021/10/03 10:06:00;;;;;;;4.30;3.90;;;;;;;;;;5036203;28;20832;-78
2021/10/03 10:08:26;;;;;;;4.67;3.63;;;;;;;;;;5036485;28;20460;-78
2021/10/03 10:10:54;;;;;;;5.23;3.70;;;;;;;;;;5036693;28;20782;-78
2021/10/03 10:13:22;;;;;;;3.30;2.90;;;;;;;;;;5036022;28;20825;-79
2021/10/03 10:15:48;;;;;;;5.50;4.30;;;;;;;;;;5036432;28;20700;-78
2021/10/03 10:18:23;;;;;;;4.07;3.67;;;;;;;;;;5036389;28;20416;-79
2021/10/03 10:20:53;;;;;;;6.60;3.73;;;;;;;;;;5036455;28;20416;-78
2021/10/03 10:23:19;;;;;;;3.77;3.40;;;;;;;;;;5036182;28;20433;-78
2021/10/03 10:25:53;;;;;;;4.37;3.50;;;;;;;;;;5018516;28;20400;-78
2021/10/03 10:28:21;;;;;;;4.23;3.80;;;;;;;;;;5036227;28;20457;-77
2021/10/03 10:31:06;;;;;;;5.33;3.30;;;;;;;;;;5036217;28;20411;-80
2021/10/03 10:33:50;;;;;;;4.57;3.57;;;;;;;;;;5036035;28;20440;-80
2021/10/03 10:36:42;;;;;;;4.17;3.07;;;;;;;;;;5018650;28;20416;-80
2021/10/03 10:39:08;;;;;;;4.17;3.63;;;;;;;;;;5014767;28;20791;-79
2021/10/03 10:41:39;;;;;;;4.20;3.60;;;;;;;;;;5017395;28;20413;-80
2021/10/03 10:44:25;;;;;;;4.50;3.70;;;;;;;;;;5035930;28;20387;-80
2021/10/03 10:46:53;;;;;;;5.70;4.40;;;;;;;;;;5035689;28;20461;-80
2021/10/03 10:49:28;;;;;;;3.53;3.23;;;;;;;;;;5035745;28;20413;-80
2021/10/03 10:52:12;;;;;;;4.63;3.90;;;;;;;;;;5017594;28;20448;-79
2021/10/03 10:54:38;;;;;;;3.93;3.20;;;;;;;;;;5035735;28;20724;-79
2021/10/03 10:57:08;;;;;;;3.60;3.30;;;;;;;;;;5035539;28;20474;-80
2021/10/03 10:59:54;;;;;;;5.17;3.70;;;;;;;;;;5035676;28;20445;-80
2021/10/03 11:02:38;;;;;;;5.73;3.97;;;;;;;;;;5017186;28;20444;-79
2021/10/03 11:05:23;;;;;;;3.87;3.57;;;;;;;;;;5035500;28;20834;-79
2021/10/03 11:08:05;;;;;;;4.57;3.80;;;;;;;;;;5017737;28;20452;-80
2021/10/03 11:10:31;;;;;;;4.27;3.63;;;;;;;;;;5018091;28;20413;-79
2021/10/03 11:12:57;;;;;;;4.07;3.67;;;;;;;;;;5035036;28;20451;-78
2021/10/03 11:15:24;;;;;;;6.53;4.07;;;;;;;;;;5017451;28;20961;-79
2021/10/03 11:17:51;;;;;;;4.93;4.40;;;;;;;;;;5035424;28;20415;-78
2021/10/03 11:20:17;;;;;;;7.03;3.87;;;;;;;;;;5017637;28;20396;-78
2021/10/03 11:22:44;;;;;;;3.57;3.13;;;;;;;;;;5034896;28;20418;-78
2021/10/03 11:25:15;;;;;;;4.47;3.43;;;;;;;;;;5035363;28;20486;-78
2021/10/03 11:27:41;;;;;;;7.53;3.90;;;;;;;;;;5034990;28;20468;-79
2021/10/03 11:30:07;;;;;;;7.97;4.40;;;;;;;;;;5035067;28;20388;-79
2021/10/03 11:32:37;;;;;;;4.10;3.60;;;;;;;;;;5044612;28;20438;-79
2021/10/03 11:35:03;;;;;;;4.40;3.43;;;;;;;;;;5032591;28;20417;-79
2021/10/03 11:37:34;;;;;;;3.90;3.40;;;;;;;;;;5052966;28;20901;-78
2021/10/03 11:40:07;;;;;;;4.47;3.63;;;;;;;;;;5035802;28;20432;-78
2021/10/03 11:42:37;;;;;;;4.00;3.30;;;;;;;;;;5052301;28;20947;-79
2021/10/03 11:45:22;;;;;;;4.10;3.70;;;;;;;;;;5053276;28;20464;-78
2021/10/03 11:47:55;;;;;;;3.83;3.53;;;;;;;;;;5051926;28;20463;-78
2021/10/03 11:50:23;;;;;;;4.03;3.40;;;;;;;;;;5052970;28;20394;-78
2021/10/03 11:52:50;;;;;;;5.23;3.83;;;;;;;;;;5052020;28;20451;-79
2021/10/03 11:55:20;;;;;;;4.00;3.60;;;;;;;;;;5050350;28;20412;-78
2021/10/03 11:57:47;;;;;;;4.80;4.00;;;;;;;;;;5053063;28;20798;-79
2021/10/03 12:00:13;;;;;;;3.60;3.00;;;;;;;;;;5052896;28;20565;-77
2021/10/03 12:02:40;;;;;;;4.63;3.60;;;;;;;;;;5051701;28;20441;-78
2021/10/03 12:05:07;;;;;;;2.57;2.37;;;;;;;;;;5052381;28;20434;-78
2021/10/03 12:07:34;;;;;;;3.20;2.90;;;;;;;;;;5052697;28;20445;-78
2021/10/03 12:10:00;;;;;;;6.17;4.07;;;;;;;;;;5051744;28;21068;-79
2021/10/03 12:12:44;;;;;;;4.23;3.63;;;;;;;;;;5034345;28;20431;-78
2021/10/03 12:15:29;;;;;;;5.03;3.10;;;;;;;;;;5051987;28;20420;-79
2021/10/03 12:17:55;;;;;;;5.23;3.43;;;;;;;;;;5051281;28;20762;-79
2021/10/03 12:20:21;;;;;;;5.57;3.60;;;;;;;;;;5052594;28;20815;-78
2021/10/03 12:22:51;;;;;;;5.80;4.13;;;;;;;;;;5051187;28;20465;-78
2021/10/03 12:25:17;;;;;;;3.47;3.17;;;;;;;;;;5051927;28;20480;-79
2021/10/03 12:27:56;;;;;;;6.23;2.83;;;;;;;;;;5035458;28;20563;-78
2021/10/03 12:30:23;;;;;;;5.57;3.10;;;;;;;;;;5052427;28;20420;-79
2021/10/03 12:33:01;;;;;;;4.17;3.20;;;;;;;;;;5050692;28;20815;-79
2021/10/03 12:35:27;;;;;;;5.03;3.33;;;;;;;;;;5050875;28;20828;-78
2021/10/03 12:37:53;;;;;;;7.90;4.33;;;;;;;;;;5051458;28;20470;-78
2021/10/03 12:40:22;;;;;;;4.60;3.40;;;;;;;;;;5048952;28;20397;-78
2021/10/03 12:42:48;;;;;;;4.00;3.60;;;;;;;;;;5038541;28;20820;-78
2021/10/03 12:45:16;;;;;;;8.20;3.10;;;;;;;;;;5071927;28;20462;-78
2021/10/03 12:47:42;;;;;;;4.03;3.63;;;;;;;;;;5070706;28;20436;-78
2021/10/03 12:50:08;;;;;;;4.50;3.33;;;;;;;;;;5053903;28;20437;-80
2021/10/03 12:52:34;;;;;;;3.63;3.07;;;;;;;;;;5071114;28;20534;-79
2021/10/03 12:55:00;;;;;;;3.00;2.70;;;;;;;;;;5070982;28;20437;-78
2021/10/03 12:57:26;;;;;;;3.33;2.60;;;;;;;;;;5071587;28;20406;-79
2021/10/03 12:59:52;;;;;;;6.70;3.30;;;;;;;;;;5071930;28;20927;-78
2021/10/03 13:02:18;;;;;;;3.10;2.80;;;;;;;;;;5070204;28;20421;-78
2021/10/03 13:04:44;;;;;;;3.30;2.83;;;;;;;;;;5071754;28;20813;-78
2021/10/03 13:07:10;;;;;;;4.10;3.17;;;;;;;;;;5071252;28;20462;-78
2021/10/03 13:09:36;;;;;;;6.13;3.33;;;;;;;;;;5071133;28;20423;-78
2021/10/03 13:12:02;;;;;;;3.60;2.50;;;;;;;;;;5052804;28;20418;-79
2021/10/03 13:14:29;;;;;;;3.70;3.10;;;;;;;;;;5053781;28;20427;-79
2021/10/03 13:16:55;;;;;;;3.37;2.33;;;;;;;;;;5052314;28;20394;-79
2021/10/03 13:19:21;;;;;;;3.30;3.00;;;;;;;;;;5071699;28;20572;-79
2021/10/03 13:21:47;;;;;;;3.13;2.83;;;;;;;;;;5053377;28;20529;-79
2021/10/03 13:24:15;;;;;;;3.23;2.40;;;;;;;;;;5070671;28;20465;-78
2021/10/03 13:26:41;;;;;;;3.13;2.13;;;;;;;;;;5071115;28;20426;-79
2021/10/03 13:29:07;;;;;;;2.60;2.20;;;;;;;;;;5071306;28;20397;-78
2021/10/03 13:31:33;;;;;;;3.90;2.63;;;;;;;;;;5052289;28;20508;-79
2021/10/03 13:34:00;;;;;;;2.30;2.10;;;;;;;;;;5071066;28;20864;-79
2021/10/03 13:36:26;;;;;;;2.63;2.43;;;;;;;;;;5058011;28;20390;-78
2021/10/03 13:38:52;;;;;;;2.50;2.30;;;;;;;;;;5049913;28;20410;-78
2021/10/03 13:41:19;;;;;;;2.80;2.00;;;;;;;;;;5051172;28;20428;-78
2021/10/03 13:43:45;;;;;;;2.67;1.83;;;;;;;;;;5033302;28;20944;-78
2021/10/03 13:46:13;;;;;;;4.20;2.07;;;;;;;;;;5032472;28;20424;-79
2021/10/03 13:48:39;;;;;;;2.13;1.87;;;;;;;;;;5050575;28;20533;-78
2021/10/03 13:51:05;;;;;;;2.43;2.23;;;;;;;;;;5033312;28;20497;-78
2021/10/03 13:53:31;;;;;;;7.53;3.90;;;;;;;;;;5032272;28;20934;-79
2021/10/03 13:55:57;;;;;;;3.37;3.07;;;;;;;;;;5051190;28;20464;-78
2021/10/03 13:58:23;;;;;;;2.83;1.63;;;;;;;;;;5050297;28;20439;-79
2021/10/03 14:00:50;;;;;;;2.80;1.40;;;;;;;;;;5050565;28;20398;-78
2021/10/03 14:03:16;;;;;;;1.50;1.40;;;;;;;;;;5050538;28;20492;-78
2021/10/03 14:05:42;;;;;;;1.20;0.80;;;;;;;;;;5033427;28;20421;-78
2021/10/03 14:08:08;;;;;;;1.43;1.10;;;;;;;;;;5049758;28;20438;-78
2021/10/03 14:10:34;;;;;;;1.10;0.80;;;;;;;;;;5051100;28;20527;-77
2021/10/03 14:13:00;;;;;;;2.93;1.07;;;;;;;;;;5032428;28;20455;-79
2021/10/03 14:15:26;;;;;;;1.27;1.10;;;;;;;;;;5032951;28;20410;-78
2021/10/03 14:17:52;;;;;;;0.90;0.70;;;;;;;;;;5052709;28;20490;-79
2021/10/03 14:20:20;;;;;;;0.90;0.87;;;;;;;;;;5054658;28;20398;-79
2021/10/03 14:22:46;;;;;;;0.90;0.80;;;;;;;;;;5053674;28;20443;-79
2021/10/03 14:25:12;;;;;;;1.17;1.07;;;;;;;;;;5054094;28;20860;-78
2021/10/03 14:27:38;;;;;;;3.13;1.20;;;;;;;;;;5036390;28;20421;-78
2021/10/03 14:30:05;;;;;;;1.43;0.90;;;;;;;;;;5054596;28;20417;-78
2021/10/03 14:32:31;;;;;;;1.20;0.80;;;;;;;;;;5034809;28;20958;-79
2021/10/03 14:34:57;;;;;;;1.00;0.90;;;;;;;;;;5037042;28;20423;-79
2021/10/03 14:37:23;;;;;;;1.13;1.03;;;;;;;;;;5034848;28;20448;-79
2021/10/03 14:39:49;;;;;;;2.07;0.77;;;;;;;;;;5053245;28;20406;-78
2021/10/03 14:42:15;;;;;;;0.67;0.53;;;;;;;;;;5051988;28;20478;-79
2021/10/03 14:44:41;;;;;;;1.47;0.70;;;;;;;;;;5035179;28;20415;-79